Miami Beach, Florida
Current Conditions -  °F | °C
As of 4:53 PM on Friday 19 Dec 2014 (Local Time) from KMIA Reporting Station
Broken Clouds Broken Clouds  
Wind Chill: 74°   Ceiling: 25000
Heat Index: 74°   Visibility: 10mi
Dew Point: 57°   Wind: 12mph
Humidity: 55%   Direction: 110°ESE
Pressure: 30.03"   Gusts: NA
Location:  25.81°N, 80.13°W
Report Text: KMIA 192153Z 11010KT 10SM FEW038 BKN250 23/14 A3003 RMK AO2 SLP170 T02330139
Loading
Personal Weather Stations






























Interactive Weather Map New forecast layout! Learn more

10-Day Weather Forecast

Advertisements
Track Severe Weather on mobile